createdAt,value
2019-03-04T00:00:07.214Z,2.80
2019-03-04T00:02:37.763Z,2.70
2019-03-04T00:05:06.702Z,2.80
2019-03-04T00:07:35.625Z,2.87
2019-03-04T00:10:05.171Z,2.73
2019-03-04T00:12:34.111Z,2.70
2019-03-04T00:15:03.155Z,2.63
2019-03-04T00:17:32.351Z,2.53
2019-03-04T00:20:01.308Z,2.50
2019-03-04T00:22:30.312Z,2.67
2019-03-04T00:24:59.238Z,2.67
2019-03-04T00:27:28.201Z,2.50
2019-03-04T00:29:57.106Z,2.60
2019-03-04T00:32:26.050Z,2.60
2019-03-04T00:34:54.970Z,2.33
2019-03-04T00:37:25.005Z,2.50
2019-03-04T00:39:53.933Z,2.33
2019-03-04T00:42:22.932Z,2.83
2019-03-04T00:44:51.879Z,2.27
2019-03-04T00:47:20.789Z,2.07
2019-03-04T00:49:49.793Z,2.40
2019-03-04T00:52:18.753Z,2.83
2019-03-04T00:54:47.657Z,1.80
2019-03-04T00:57:16.666Z,2.40
2019-03-04T00:59:45.575Z,2.30
2019-03-04T01:02:14.525Z,2.47
2019-03-04T01:04:43.420Z,2.87
2019-03-04T01:07:12.325Z,2.40
2019-03-04T01:09:41.251Z,2.67
2019-03-04T01:12:10.197Z,2.20
2019-03-04T01:14:39.128Z,2.57
2019-03-04T01:17:08.030Z,2.60
2019-03-04T01:19:36.974Z,2.30
2019-03-04T01:22:05.901Z,2.20
2019-03-04T01:24:34.810Z,2.57
2019-03-04T01:27:03.806Z,2.40
2019-03-04T01:29:32.718Z,2.20
2019-03-04T01:32:01.667Z,2.40
2019-03-04T01:34:30.569Z,2.20
2019-03-04T01:36:59.509Z,2.93
2019-03-04T01:39:28.434Z,2.73
2019-03-04T01:41:57.376Z,2.40
2019-03-04T01:44:26.312Z,2.40
2019-03-04T01:46:55.177Z,2.60
2019-03-04T01:49:24.109Z,2.73
2019-03-04T01:51:53.022Z,2.73
2019-03-04T01:54:21.962Z,2.93
2019-03-04T01:56:51.043Z,2.40
2019-03-04T01:59:19.969Z,2.70
2019-03-04T02:01:48.967Z,3.03
2019-03-04T02:04:17.921Z,2.47
2019-03-04T02:06:46.983Z,2.60
2019-03-04T02:09:16.005Z,2.40
2019-03-04T02:11:45.017Z,2.77
2019-03-04T02:14:13.946Z,2.60
2019-03-04T02:16:42.864Z,2.73
2019-03-04T02:19:11.806Z,2.30
2019-03-04T02:21:40.754Z,2.63
2019-03-04T02:24:30.622Z,2.67
2019-03-04T02:26:59.545Z,2.40
2019-03-04T02:29:28.498Z,2.37
2019-03-04T02:31:57.502Z,2.30
2019-03-04T02:34:26.430Z,2.47
2019-03-04T02:36:55.336Z,2.60
2019-03-04T02:39:24.295Z,2.40
2019-03-04T02:41:53.204Z,2.37
2019-03-04T02:44:22.149Z,2.90
2019-03-04T02:46:51.073Z,2.20
2019-03-04T02:49:19.959Z,2.17
2019-03-04T02:51:48.904Z,2.37
2019-03-04T02:54:17.892Z,2.50
2019-03-04T02:56:46.822Z,2.30
2019-03-04T02:59:15.712Z,2.33
2019-03-04T03:01:44.670Z,1.97
2019-03-04T03:04:13.585Z,2.47
2019-03-04T03:06:42.539Z,2.10
2019-03-04T03:09:11.870Z,2.10
2019-03-04T03:11:40.900Z,2.43
2019-03-04T03:14:10.337Z,2.00
2019-03-04T03:16:39.303Z,2.50
2019-03-04T03:19:08.231Z,1.93
2019-03-04T03:21:37.188Z,2.20
2019-03-04T03:24:06.135Z,2.10
2019-03-04T03:26:35.054Z,2.07
2019-03-04T03:29:04.007Z,2.30
2019-03-04T03:31:32.971Z,1.90
2019-03-04T03:34:01.916Z,2.33
2019-03-04T03:36:30.889Z,2.40
2019-03-04T03:38:59.830Z,1.83
2019-03-04T03:41:28.757Z,2.10
2019-03-04T03:43:58.775Z,2.03
2019-03-04T03:46:27.698Z,2.40
2019-03-04T03:48:56.589Z,2.03
2019-03-04T03:51:25.556Z,1.93
2019-03-04T03:53:54.498Z,1.80
2019-03-04T03:56:23.430Z,2.47
2019-03-04T03:58:52.383Z,1.97
2019-03-04T04:01:21.374Z,1.97
2019-03-04T04:03:50.303Z,1.70
2019-03-04T04:06:19.275Z,1.90
2019-03-04T04:08:48.198Z,1.80
2019-03-04T04:11:17.138Z,1.97
2019-03-04T04:13:46.051Z,2.03
2019-03-04T04:16:14.970Z,1.90
2019-03-04T04:18:43.910Z,1.53
2019-03-04T04:21:12.848Z,1.60
2019-03-04T04:23:42.563Z,1.60
2019-03-04T04:26:13.141Z,1.80
2019-03-04T04:28:42.066Z,1.77
2019-03-04T04:31:11.010Z,1.50
2019-03-04T04:33:39.897Z,1.70
2019-03-04T04:39:49.437Z,1.43
2019-03-04T04:42:18.398Z,1.67
2019-03-04T04:44:47.342Z,1.57
2019-03-04T04:47:16.314Z,1.60
2019-03-04T04:49:45.255Z,1.87
2019-03-04T04:52:14.185Z,1.43
2019-03-04T04:54:43.117Z,1.40
2019-03-04T04:57:12.071Z,1.27
2019-03-04T04:59:41.050Z,1.40
2019-03-04T05:02:09.975Z,1.50
2019-03-04T05:04:38.906Z,1.50
2019-03-04T05:07:07.841Z,1.80
2019-03-04T05:09:36.880Z,1.80
2019-03-04T05:12:05.813Z,1.40
2019-03-04T05:14:34.775Z,1.70
2019-03-04T05:17:03.656Z,1.30
2019-03-04T05:19:32.696Z,1.53
2019-03-04T05:22:01.844Z,1.67
2019-03-04T05:24:30.767Z,1.50
2019-03-04T05:26:59.652Z,2.03
2019-03-04T05:29:28.500Z,1.50
2019-03-04T05:31:57.495Z,1.50
2019-03-04T05:34:26.443Z,1.43
2019-03-04T05:36:56.721Z,1.80
2019-03-04T05:39:26.707Z,1.50
2019-03-04T05:41:55.631Z,1.20
2019-03-04T05:44:27.731Z,1.77
2019-03-04T05:46:56.668Z,1.53
2019-03-04T05:49:25.617Z,1.57
2019-03-04T05:51:54.536Z,1.50
2019-03-04T05:54:23.457Z,1.40
2019-03-04T05:56:52.291Z,1.40
2019-03-04T05:59:21.240Z,1.20
2019-03-04T06:01:51.800Z,1.30
2019-03-04T06:04:20.754Z,1.30
2019-03-04T06:06:51.330Z,1.50
2019-03-04T06:09:20.274Z,1.33
2019-03-04T06:11:49.208Z,1.50
2019-03-04T06:14:18.142Z,1.50
2019-03-04T06:16:47.701Z,1.13
2019-03-04T06:19:16.723Z,1.40
2019-03-04T06:21:45.691Z,1.47
2019-03-04T06:24:14.601Z,1.30
2019-03-04T06:26:43.552Z,1.33
2019-03-04T06:29:12.492Z,1.33
2019-03-04T06:31:41.388Z,1.40
2019-03-04T06:34:10.391Z,1.30
2019-03-04T06:36:39.329Z,1.30
2019-03-04T06:39:08.260Z,1.30
2019-03-04T06:41:37.214Z,1.20
2019-03-04T06:44:06.109Z,1.47
2019-03-04T06:46:35.151Z,1.33
2019-03-04T06:49:05.057Z,1.20
2019-03-04T06:51:35.714Z,1.40
2019-03-04T06:54:07.340Z,1.57
2019-03-04T06:56:37.895Z,1.30
2019-03-04T06:59:08.392Z,1.33
2019-03-04T07:01:38.978Z,1.40
2019-03-04T07:04:09.511Z,1.37
2019-03-04T07:06:39.428Z,1.40
2019-03-04T07:09:08.481Z,1.37
2019-03-04T07:11:37.495Z,1.43
2019-03-04T07:14:06.444Z,1.50
2019-03-04T07:16:35.378Z,1.40
2019-03-04T07:19:04.448Z,1.50
2019-03-04T07:21:33.306Z,1.50
2019-03-04T07:24:02.211Z,1.80
2019-03-04T07:26:31.228Z,1.43
2019-03-04T07:29:00.125Z,1.30
2019-03-04T07:31:28.993Z,1.00
2019-03-04T07:33:58.032Z,1.00
2019-03-04T07:36:26.949Z,1.03
2019-03-04T07:38:56.444Z,1.20
2019-03-04T07:41:25.731Z,0.83
2019-03-04T07:43:54.637Z,1.10
2019-03-04T07:46:23.630Z,1.03
2019-03-04T07:48:52.613Z,1.00
2019-03-04T07:51:21.549Z,0.73
2019-03-04T07:53:50.553Z,0.93
2019-03-04T07:56:19.467Z,1.00
2019-03-04T07:58:48.397Z,0.90
2019-03-04T08:01:17.393Z,1.20
2019-03-04T08:03:46.367Z,1.00
2019-03-04T08:06:15.253Z,0.87
2019-03-04T08:08:45.839Z,0.83
2019-03-04T08:11:14.781Z,1.30
2019-03-04T08:13:45.578Z,0.97
2019-03-04T08:16:14.505Z,0.93
2019-03-04T08:18:43.470Z,1.50
2019-03-04T08:21:12.433Z,1.27
2019-03-04T08:23:41.370Z,1.13
2019-03-04T08:26:10.292Z,1.60
2019-03-04T08:28:40.291Z,0.90
2019-03-04T08:31:09.328Z,1.53
2019-03-04T08:33:38.333Z,1.30
2019-03-04T08:36:07.310Z,1.33
2019-03-04T08:38:36.402Z,1.50
2019-03-04T08:41:05.326Z,1.07
2019-03-04T08:43:34.329Z,1.20
2019-03-04T08:46:03.283Z,1.10
2019-03-04T08:48:32.193Z,1.20
2019-03-04T08:51:02.308Z,1.40
2019-03-04T08:53:31.522Z,1.23
2019-03-04T08:56:00.465Z,1.40
2019-03-04T08:58:29.383Z,1.40
2019-03-04T09:00:58.483Z,1.67
2019-03-04T09:03:28.513Z,1.40
2019-03-04T09:05:57.462Z,1.27
2019-03-04T09:08:26.349Z,1.40
2019-03-04T09:10:55.285Z,1.77
2019-03-04T09:13:24.209Z,1.30
2019-03-04T09:15:53.152Z,1.40
2019-03-04T09:18:22.106Z,1.40
2019-03-04T09:20:51.021Z,1.40
2019-03-04T09:23:20.059Z,1.67
2019-03-04T09:25:50.604Z,2.03
2019-03-04T09:28:19.538Z,1.50
2019-03-04T09:30:48.642Z,2.00
2019-03-04T09:33:17.570Z,1.83
2019-03-04T09:35:47.928Z,1.50
2019-03-04T09:38:16.882Z,1.60
2019-03-04T09:40:45.872Z,1.40
2019-03-04T09:43:14.791Z,1.13
2019-03-04T09:45:43.701Z,1.10
2019-03-04T09:48:12.649Z,1.20
2019-03-04T09:50:41.558Z,1.27
2019-03-04T09:53:10.501Z,1.50
2019-03-04T09:55:39.441Z,1.43
2019-03-04T09:58:08.357Z,1.30
2019-03-04T10:00:38.490Z,1.53
2019-03-04T10:03:09.070Z,1.37
2019-03-04T10:05:39.622Z,1.43
2019-03-04T10:08:10.158Z,1.80
2019-03-04T10:10:40.716Z,1.40
2019-03-04T10:13:11.250Z,1.40
2019-03-04T10:15:42.851Z,1.30
2019-03-04T10:18:13.518Z,1.20
2019-03-04T10:20:44.190Z,1.33
2019-03-04T10:23:13.043Z,1.40
2019-03-04T10:25:44.806Z,1.63
2019-03-04T10:28:13.798Z,1.90
2019-03-04T10:30:44.420Z,1.60
2019-03-04T10:33:15.030Z,1.63
2019-03-04T10:35:45.619Z,2.00
2019-03-04T10:38:22.626Z,1.40
2019-03-04T10:40:49.348Z,1.30
2019-03-04T10:43:19.903Z,1.73
2019-03-04T10:45:50.455Z,1.60
2019-03-04T10:48:19.385Z,1.80
2019-03-04T10:50:48.374Z,1.90
2019-03-04T10:53:17.417Z,2.00
2019-03-04T10:55:46.355Z,1.60
2019-03-04T10:58:15.298Z,1.60
2019-03-04T11:00:44.225Z,2.27
2019-03-04T11:03:13.156Z,1.43
2019-03-04T11:05:42.200Z,1.80
2019-03-04T11:08:11.147Z,1.70
2019-03-04T11:10:40.095Z,2.40
2019-03-04T11:13:09.102Z,1.67
2019-03-04T11:15:37.999Z,1.60
2019-03-04T11:18:06.937Z,1.87
2019-03-04T11:20:35.952Z,1.80
2019-03-04T11:23:05.038Z,2.27
2019-03-04T11:25:34.096Z,2.30
2019-03-04T11:28:03.113Z,1.73
2019-03-04T11:30:32.940Z,2.00
2019-03-04T11:33:01.873Z,1.97
2019-03-04T11:35:30.810Z,2.83
2019-03-04T11:37:59.814Z,2.43
2019-03-04T11:40:31.500Z,2.40
2019-03-04T11:43:00.459Z,2.43
2019-03-04T11:45:29.390Z,2.30
2019-03-04T11:47:58.385Z,2.37
2019-03-04T11:50:27.312Z,2.43
2019-03-04T11:52:56.424Z,2.50
2019-03-04T11:55:27.065Z,2.17
2019-03-04T11:57:56.038Z,2.67
2019-03-04T12:00:27.289Z,2.30
2019-03-04T12:02:56.309Z,2.13
2019-03-04T12:05:25.251Z,2.43
2019-03-04T12:07:54.245Z,2.50
2019-03-04T12:10:23.150Z,2.57
2019-03-04T12:12:52.134Z,2.67
2019-03-04T12:15:21.114Z,2.30
2019-03-04T12:17:50.045Z,2.47
2019-03-04T12:20:19.065Z,1.20
2019-03-04T12:22:47.967Z,0.70
2019-03-04T12:25:18.213Z,0.93
2019-03-04T12:27:47.163Z,0.80
2019-03-04T12:30:17.733Z,0.80
2019-03-04T12:32:46.696Z,0.70
2019-03-04T12:35:16.844Z,0.80
2019-03-04T12:37:46.599Z,0.70
2019-03-04T12:40:16.307Z,0.90
2019-03-04T12:42:45.209Z,0.80
2019-03-04T12:45:15.442Z,0.90
2019-03-04T12:47:44.340Z,0.80
2019-03-04T12:50:14.964Z,0.97
2019-03-04T12:52:43.903Z,1.00
2019-03-04T12:55:13.070Z,0.80
2019-03-04T12:57:42.561Z,0.80
2019-03-04T13:00:13.489Z,1.27
2019-03-04T13:02:43.445Z,0.90
2019-03-04T13:05:12.820Z,0.90
2019-03-04T13:07:41.723Z,0.80
2019-03-04T13:10:11.871Z,1.00
2019-03-04T13:12:41.073Z,1.00
2019-03-04T13:15:11.655Z,1.00
2019-03-04T13:17:40.579Z,1.43
2019-03-04T13:20:11.132Z,1.50
2019-03-04T13:22:40.069Z,1.40
2019-03-04T13:25:09.591Z,1.30
2019-03-04T13:27:38.518Z,1.67
2019-03-04T13:30:28.683Z,1.47
2019-03-04T13:32:58.829Z,1.30
2019-03-04T13:35:28.826Z,1.57
2019-03-04T13:37:57.781Z,1.77
2019-03-04T13:40:26.969Z,2.10
2019-03-04T13:42:55.933Z,1.60
2019-03-04T13:45:24.920Z,1.57
2019-03-04T13:47:53.934Z,1.67
2019-03-04T13:50:24.338Z,1.47
2019-03-04T13:52:53.497Z,1.47
2019-03-04T13:55:22.390Z,1.70
2019-03-04T13:57:51.329Z,1.97
2019-03-04T14:00:20.838Z,1.60
2019-03-04T14:02:49.784Z,1.70
2019-03-04T14:05:20.374Z,1.70
2019-03-04T14:07:49.358Z,2.23
2019-03-04T14:10:19.370Z,1.60
2019-03-04T14:12:48.338Z,1.57
2019-03-04T14:15:19.119Z,1.70
2019-03-04T14:17:48.089Z,1.60
2019-03-04T14:20:17.075Z,1.80
2019-03-04T14:22:56.958Z,1.60
2019-03-04T14:25:16.655Z,1.90
2019-03-04T14:27:45.707Z,2.10
2019-03-04T14:30:16.272Z,2.07
2019-03-04T14:32:45.195Z,1.77
2019-03-04T14:35:14.184Z,2.00
2019-03-04T14:37:43.477Z,1.87
2019-03-04T14:40:14.093Z,1.70
2019-03-04T14:42:43.038Z,1.87
2019-03-04T14:45:13.655Z,2.00
2019-03-04T14:47:42.633Z,2.00
2019-03-04T14:50:12.769Z,2.17
2019-03-04T14:52:41.722Z,2.07
2019-03-04T14:55:11.630Z,2.40
2019-03-04T14:57:40.625Z,2.50
2019-03-04T15:00:11.155Z,2.70
2019-03-04T15:02:40.092Z,2.80
2019-03-04T15:05:09.015Z,2.60
2019-03-04T15:07:38.038Z,2.70
2019-03-04T15:10:08.162Z,2.57
2019-03-04T15:12:37.112Z,2.43
2019-03-04T15:15:07.642Z,2.23
2019-03-04T15:17:36.651Z,2.40
2019-03-04T15:20:09.690Z,2.20
2019-03-04T15:22:37.894Z,2.20
2019-03-04T15:25:08.447Z,2.17
2019-03-04T15:27:37.494Z,2.40
2019-03-04T15:33:20.112Z,1.90
2019-03-04T15:35:50.210Z,2.00
2019-03-04T15:38:19.170Z,2.40
2019-03-04T15:40:48.097Z,2.37
2019-03-04T15:43:17.123Z,2.17
2019-03-04T15:45:47.835Z,1.90
2019-03-04T15:48:17.498Z,2.40
2019-03-04T15:50:46.430Z,2.30
2019-03-04T15:53:15.427Z,2.80
2019-03-04T15:55:44.353Z,2.67
2019-03-04T15:58:13.288Z,3.20
2019-03-04T16:00:42.330Z,2.73
2019-03-04T16:03:11.255Z,3.27
2019-03-04T16:05:40.175Z,2.00
2019-03-04T16:08:09.097Z,3.03
2019-03-04T16:10:38.610Z,1.93
2019-03-04T16:13:07.989Z,2.67
2019-03-04T16:15:38.094Z,2.40
2019-03-04T16:18:06.997Z,2.10
2019-03-04T16:20:35.873Z,2.40
2019-03-04T16:23:05.891Z,2.40
2019-03-04T16:25:34.859Z,3.00
2019-03-04T16:28:05.437Z,2.20
2019-03-04T16:30:34.412Z,2.40
2019-03-04T16:33:03.346Z,2.73
2019-03-04T16:35:32.274Z,2.40
2019-03-04T16:38:01.202Z,2.47
2019-03-04T16:40:30.146Z,2.00
2019-03-04T16:42:59.052Z,2.60
2019-03-04T16:45:28.042Z,2.23
2019-03-04T16:47:56.990Z,2.40
2019-03-04T16:50:27.624Z,2.63
2019-03-04T16:52:58.205Z,2.40
2019-03-04T16:55:27.167Z,2.50
2019-03-04T16:57:56.076Z,2.50
2019-03-04T17:00:25.140Z,2.47
2019-03-04T17:02:54.143Z,3.23
2019-03-04T17:05:23.098Z,3.27
2019-03-04T17:07:52.110Z,3.33
2019-03-04T17:10:22.302Z,2.53
2019-03-04T17:12:51.284Z,2.87
2019-03-04T17:15:20.517Z,1.97
2019-03-04T17:17:49.542Z,2.73
2019-03-04T17:20:18.554Z,2.90
2019-03-04T17:22:47.612Z,2.77
2019-03-04T17:25:18.421Z,2.70
2019-03-04T17:27:47.603Z,3.17
2019-03-04T17:30:18.091Z,2.37
2019-03-04T17:32:47.153Z,2.70
2019-03-04T17:35:17.877Z,2.60
2019-03-04T17:37:47.191Z,2.43
2019-03-04T17:40:17.850Z,2.57
2019-03-04T17:42:46.932Z,2.50
2019-03-04T17:45:17.829Z,2.40
2019-03-04T17:47:46.847Z,3.63
2019-03-04T17:50:17.474Z,2.50
2019-03-04T17:52:46.425Z,2.53
2019-03-04T17:55:16.473Z,2.80
2019-03-04T17:57:45.489Z,2.17
2019-03-04T18:00:16.110Z,2.80
2019-03-04T18:02:45.224Z,2.40
2019-03-04T18:05:14.156Z,2.80
2019-03-04T18:07:43.137Z,2.80
2019-03-04T18:10:14.831Z,2.60
2019-03-04T18:12:44.082Z,2.23
2019-03-04T18:15:15.237Z,2.50
2019-03-04T18:17:44.186Z,2.40
2019-03-04T18:20:13.723Z,2.40
2019-03-04T18:22:43.197Z,2.40
2019-03-04T18:25:13.829Z,2.13
2019-03-04T18:27:44.559Z,3.20
2019-03-04T18:30:15.125Z,2.40
2019-03-04T18:32:45.677Z,2.60
2019-03-04T18:35:16.217Z,2.13
2019-03-04T18:37:46.952Z,2.70
2019-03-04T18:40:17.579Z,2.33
2019-03-04T18:42:48.221Z,2.40
2019-03-04T18:45:18.850Z,2.40
2019-03-04T18:47:49.486Z,2.17
2019-03-04T18:50:18.509Z,2.30
2019-03-04T18:52:47.547Z,1.97
2019-03-04T18:55:16.465Z,2.63
2019-03-04T18:57:45.347Z,2.50
2019-03-04T19:00:15.870Z,2.23
2019-03-04T19:02:45.206Z,2.13
2019-03-04T19:05:14.128Z,3.27
2019-03-04T19:07:43.129Z,1.97
2019-03-04T19:10:12.422Z,2.37
2019-03-04T19:12:41.633Z,2.30
2019-03-04T19:15:10.860Z,2.30
2019-03-04T19:17:39.819Z,3.27
2019-03-04T19:20:10.370Z,2.17
2019-03-04T19:22:40.942Z,2.33
2019-03-04T19:25:10.015Z,2.70
2019-03-04T19:27:39.021Z,2.27
2019-03-04T19:30:09.254Z,2.53
2019-03-04T19:32:38.448Z,2.53
2019-03-04T19:35:08.614Z,2.70
2019-03-04T19:37:37.617Z,2.30
2019-03-04T19:40:08.254Z,2.10
2019-03-04T19:42:37.221Z,1.90
2019-03-04T19:45:07.865Z,2.60
2019-03-04T19:47:37.552Z,2.70
2019-03-04T19:50:08.243Z,1.90
2019-03-04T19:52:37.217Z,2.53
2019-03-04T19:55:07.875Z,2.27
2019-03-04T19:57:38.643Z,2.37
2019-03-04T20:00:09.221Z,2.00
2019-03-04T20:02:39.828Z,2.90
2019-03-04T20:05:09.078Z,2.30
2019-03-04T20:07:39.617Z,2.60
2019-03-04T20:10:10.806Z,2.80
2019-03-04T20:12:39.885Z,2.70
2019-03-04T20:15:10.493Z,2.33
2019-03-04T20:17:39.609Z,2.20
2019-03-04T20:20:10.415Z,2.60
2019-03-04T20:22:39.821Z,2.30
2019-03-04T20:25:12.354Z,2.30
2019-03-04T20:27:40.894Z,2.27
2019-03-04T20:30:11.502Z,2.30
2019-03-04T20:32:40.672Z,2.13
2019-03-04T20:35:10.510Z,2.20
2019-03-04T20:37:41.118Z,2.77
2019-03-04T20:40:11.313Z,2.20
2019-03-04T20:42:40.366Z,2.20
2019-03-04T20:45:10.802Z,2.97
2019-03-04T20:47:39.914Z,2.13
2019-03-04T20:50:10.514Z,2.43
2019-03-04T20:52:39.439Z,2.17
2019-03-04T20:55:09.058Z,2.47
2019-03-04T20:57:37.987Z,2.40
2019-03-04T21:00:08.672Z,2.83
2019-03-04T21:02:38.465Z,2.20
2019-03-04T21:05:08.464Z,1.93
2019-03-04T21:07:37.485Z,2.57
2019-03-04T21:10:08.084Z,2.50
2019-03-04T21:12:37.630Z,2.47
2019-03-04T21:15:08.200Z,2.80
2019-03-04T21:17:37.296Z,2.70
2019-03-04T21:20:08.925Z,2.27
2019-03-04T21:22:39.550Z,2.10
2019-03-04T21:25:10.261Z,2.07
2019-03-04T21:27:39.257Z,1.73
2019-03-04T21:30:09.847Z,2.00
2019-03-04T21:32:40.674Z,2.20
2019-03-04T21:35:11.514Z,2.40
2019-03-04T21:37:41.154Z,2.10
2019-03-04T21:40:11.874Z,1.93
2019-03-04T21:42:40.908Z,2.27
2019-03-04T21:45:12.010Z,2.13
2019-03-04T21:47:44.408Z,2.20
2019-03-04T21:50:15.228Z,2.13
2019-03-04T21:52:46.959Z,2.43
2019-03-04T21:55:17.592Z,1.70
2019-03-04T21:57:48.103Z,2.17
2019-03-04T22:00:18.540Z,2.33
2019-03-04T22:02:49.583Z,1.70
2019-03-04T22:05:19.691Z,2.10
2019-03-04T22:07:48.719Z,2.10
2019-03-04T22:10:18.812Z,1.90
2019-03-04T22:12:47.857Z,2.63
2019-03-04T22:15:16.915Z,2.23
2019-03-04T22:17:45.916Z,2.00
2019-03-04T22:20:15.352Z,2.30
2019-03-04T22:22:44.569Z,2.30
2019-03-04T22:25:13.927Z,2.53
2019-03-04T22:27:42.921Z,2.20
2019-03-04T22:30:13.502Z,2.37
2019-03-04T22:32:43.542Z,2.43
2019-03-04T22:35:13.752Z,2.43
2019-03-04T22:37:42.764Z,2.70
2019-03-04T22:40:13.255Z,2.63
2019-03-04T22:42:42.191Z,2.70
2019-03-04T22:45:12.358Z,2.33
2019-03-04T22:47:41.313Z,2.77
2019-03-04T22:50:11.313Z,2.60
2019-03-04T22:52:40.310Z,4.00
2019-03-04T22:55:10.904Z,3.03
2019-03-04T22:57:40.877Z,2.80
2019-03-04T23:00:12.217Z,2.73
2019-03-04T23:02:42.762Z,2.60
2019-03-04T23:05:11.945Z,3.90
2019-03-04T23:07:41.026Z,3.70
2019-03-04T23:10:10.907Z,4.20
2019-03-04T23:12:41.516Z,4.17
2019-03-04T23:15:12.086Z,5.20
2019-03-04T23:17:41.089Z,6.07
2019-03-04T23:20:10.079Z,6.13
2019-03-04T23:22:39.036Z,6.17
2019-03-04T23:25:09.597Z,6.87
2019-03-04T23:27:38.593Z,8.10
2019-03-04T23:30:09.179Z,6.80
2019-03-04T23:32:38.088Z,7.27
2019-03-04T23:35:07.596Z,6.60
2019-03-04T23:37:36.582Z,7.07
2019-03-04T23:40:07.140Z,6.67
2019-03-04T23:42:36.053Z,6.57
2019-03-04T23:45:06.631Z,8.00
2019-03-04T23:47:37.080Z,8.30
2019-03-04T23:50:07.932Z,9.50
2019-03-04T23:52:36.886Z,9.80
2019-03-04T23:55:06.508Z,9.50
2019-03-04T23:57:35.462Z,10.27
